Time;durP1;ratioP1;P1;durP2;ratioP2;P2;SDS_P1;SDS_P2;PMS_P1;PMS_P2;Temp;Humidity;BMP_temperature;BMP_pressure;BME280_temperature;BME280_humidity;BME280_pressure;Samples;Min_cycle;Max_cycle;Signal;HPM_P1;HPM_P2
2023/08/29 00:01:50;;;;;;;8.15;5.90;;;13.60;99.90;;;;;;5040838;28;20342;-39
2023/08/29 00:04:18;;;;;;;7.47;5.70;;;13.60;99.90;;;;;;5043949;28;20048;-40
2023/08/29 00:06:45;;;;;;;8.65;6.10;;;13.60;99.90;;;;;;5046489;28;20041;-39
2023/08/29 00:09:12;;;;;;;10.02;6.40;;;13.60;99.90;;;;;;5047378;28;20059;-40
2023/08/29 00:11:39;;;;;;;8.40;6.07;;;13.60;99.90;;;;;;5051294;28;20052;-37
2023/08/29 00:14:07;;;;;;;8.07;6.10;;;13.60;99.90;;;;;;5045698;28;20049;-41
2023/08/29 00:16:34;;;;;;;7.80;6.30;;;13.50;99.90;;;;;;5047260;28;20057;-40
2023/08/29 00:19:02;;;;;;;8.07;6.18;;;13.60;99.90;;;;;;5049681;28;20140;-37
2023/08/29 00:21:29;;;;;;;8.82;6.05;;;13.60;99.90;;;;;;5049035;28;20095;-42
2023/08/29 00:23:56;;;;;;;8.43;5.43;;;13.60;99.90;;;;;;5046018;28;20099;-39
2023/08/29 00:26:24;;;;;;;6.85;5.15;;;13.60;99.90;;;;;;5036437;28;20041;-39
2023/08/29 00:28:53;;;;;;;7.53;5.65;;;13.70;99.90;;;;;;5036742;28;20052;-37
2023/08/29 00:31:21;;;;;;;6.75;5.35;;;13.70;99.90;;;;;;5047022;28;20063;-42
2023/08/29 00:33:48;;;;;;;9.68;5.30;;;13.70;99.90;;;;;;5049268;28;20120;-40
2023/08/29 00:36:15;;;;;;;7.97;5.15;;;13.70;99.90;;;;;;5045236;28;20049;-40
2023/08/29 00:38:43;;;;;;;6.90;5.07;;;13.70;99.90;;;;;;5042939;28;20049;-40
2023/08/29 00:41:10;;;;;;;7.72;5.63;;;13.70;99.90;;;;;;5046085;28;20536;-39
2023/08/29 00:43:38;;;;;;;6.60;5.30;;;13.70;99.90;;;;;;5051158;28;20049;-40
2023/08/29 00:46:09;;;;;;;8.32;5.35;;;13.60;99.90;;;;;;5047090;28;20083;-42
2023/08/29 00:48:37;;;;;;;7.43;5.78;;;13.60;99.90;;;;;;5031822;28;20132;-41
2023/08/29 00:51:05;;;;;;;7.65;5.72;;;13.60;99.90;;;;;;5048014;28;20065;-42
2023/08/29 00:53:34;;;;;;;8.68;5.28;;;13.60;99.90;;;;;;5044410;28;20518;-41
2023/08/29 00:56:02;;;;;;;6.78;5.30;;;13.60;99.90;;;;;;5040471;28;20053;-40
2023/08/29 00:58:29;;;;;;;7.28;6.00;;;13.70;99.90;;;;;;5047755;28;20056;-39
2023/08/29 01:00:57;;;;;;;7.55;5.13;;;13.70;99.90;;;;;;5030097;28;20091;-41
2023/08/29 01:03:24;;;;;;;7.80;5.72;;;13.70;99.90;;;;;;5050074;28;20056;-38
2023/08/29 01:05:54;;;;;;;8.68;6.35;;;13.70;99.90;;;;;;5054402;28;20044;-41
2023/08/29 01:08:21;;;;;;;9.40;6.03;;;13.70;99.90;;;;;;5052820;28;20527;-42
2023/08/29 01:10:55;;;;;;;7.53;5.60;;;13.70;99.90;;;;;;5049834;28;20053;-41
2023/08/29 01:13:31;;;;;;;8.40;5.93;;;13.60;99.90;;;;;;5050802;28;20061;-42
2023/08/29 01:16:03;;;;;;;6.85;5.63;;;13.60;99.90;;;;;;5052502;28;20370;-38
2023/08/29 01:18:32;;;;;;;7.13;5.90;;;13.70;99.90;;;;;;5051957;28;20056;-42
2023/08/29 01:21:20;;;;;;;7.03;5.88;;;13.60;99.90;;;;;;5049356;28;20039;-40
2023/08/29 01:24:01;;;;;;;9.13;6.03;;;13.70;99.90;;;;;;5052503;28;21057;-43
2023/08/29 01:26:32;;;;;;;9.98;6.68;;;13.60;99.90;;;;;;5064838;28;20522;-42
2023/08/29 01:29:01;;;;;;;17.67;7.07;;;13.60;99.90;;;;;;5050958;28;20124;-40
2023/08/29 01:31:29;;;;;;;7.57;6.38;;;13.60;99.90;;;;;;5053729;28;20560;-39
2023/08/29 01:33:58;;;;;;;11.40;6.95;;;13.60;99.90;;;;;;5052639;28;20510;-39
2023/08/29 01:36:27;;;;;;;8.73;6.57;;;13.60;99.90;;;;;;5051945;28;20041;-37
2023/08/29 01:38:55;;;;;;;9.50;7.47;;;13.60;99.90;;;;;;5051691;28;20119;-39
2023/08/29 01:41:22;;;;;;;9.70;6.32;;;13.60;99.90;;;;;;5052437;28;20049;-41
2023/08/29 01:43:49;;;;;;;8.98;6.88;;;13.60;99.90;;;;;;5052397;28;20570;-36
2023/08/29 01:46:17;;;;;;;8.13;6.82;;;13.60;99.90;;;;;;5050447;28;20073;-40
2023/08/29 01:48:45;;;;;;;8.98;6.88;;;13.60;99.90;;;;;;5051811;28;20055;-41
2023/08/29 01:51:12;;;;;;;12.85;7.45;;;13.60;99.90;;;;;;5051028;28;20467;-40
2023/08/29 01:53:42;;;;;;;11.45;7.00;;;13.50;99.90;;;;;;5072079;28;21708;-42
2023/08/29 01:56:11;;;;;;;11.52;7.60;;;13.50;99.90;;;;;;5055757;28;20072;-39
2023/08/29 01:58:39;;;;;;;8.25;7.32;;;13.50;99.90;;;;;;5054737;28;20509;-40
2023/08/29 02:01:07;;;;;;;8.80;7.32;;;13.40;99.90;;;;;;5050620;28;20055;-37
2023/08/29 02:03:50;;;;;;;9.60;7.35;;;13.40;99.90;;;;;;5049376;28;20128;-40
2023/08/29 02:06:19;;;;;;;10.48;8.18;;;13.40;99.90;;;;;;5050601;28;20040;-39
2023/08/29 02:08:46;;;;;;;9.55;7.57;;;13.40;99.90;;;;;;5049998;28;20139;-40
2023/08/29 02:11:14;;;;;;;9.55;7.50;;;13.40;99.90;;;;;;5050496;28;20456;-42
2023/08/29 02:13:41;;;;;;;10.70;8.18;;;13.30;99.90;;;;;;5052827;28;20073;-40
2023/08/29 02:16:08;;;;;;;10.02;8.20;;;13.30;99.90;;;;;;5052628;28;20467;-39
2023/08/29 02:18:36;;;;;;;9.30;7.78;;;13.20;99.90;;;;;;5050731;28;20041;-43
2023/08/29 02:21:03;;;;;;;12.60;7.93;;;13.30;99.90;;;;;;5046103;28;20053;-38
2023/08/29 02:23:31;;;;;;;9.55;7.90;;;13.20;99.90;;;;;;5050376;28;20103;-39
2023/08/29 02:26:05;;;;;;;10.93;7.70;;;13.20;99.90;;;;;;5049982;28;20037;-39
2023/08/29 02:28:37;;;;;;;14.45;8.18;;;13.10;99.90;;;;;;5046425;28;20145;-38
2023/08/29 02:31:10;;;;;;;12.50;7.82;;;13.10;99.90;;;;;;5051250;28;20507;-39
2023/08/29 02:33:37;;;;;;;;;;;13.10;99.90;;;;;;5052152;28;20055;-42
2023/08/29 02:36:06;;;;;;;10.00;7.95;;;13.10;99.90;;;;;;5050052;28;20023;-39
2023/08/29 02:38:34;;;;;;;8.45;7.18;;;13.10;99.90;;;;;;5046611;28;20046;-40
2023/08/29 02:41:01;;;;;;;10.25;8.05;;;13.10;99.90;;;;;;5048490;28;20116;-39
2023/08/29 02:43:29;;;;;;;11.27;8.43;;;13.00;99.90;;;;;;5048440;28;20041;-41
2023/08/29 02:45:57;;;;;;;9.55;7.75;;;13.00;99.90;;;;;;5050234;28;20171;-39
2023/08/29 02:48:27;;;;;;;10.45;8.27;;;13.00;99.90;;;;;;5045593;28;20044;-38
2023/08/29 02:50:54;;;;;;;11.27;8.10;;;13.00;99.90;;;;;;5046811;28;20557;-39
2023/08/29 02:53:22;;;;;;;12.30;8.93;;;13.00;99.90;;;;;;5050006;28;20080;-39
2023/08/29 02:55:51;;;;;;;10.35;7.85;;;13.00;99.90;;;;;;5047431;28;20045;-38
2023/08/29 02:58:19;;;;;;;10.57;8.82;;;13.00;99.90;;;;;;5048750;28;20053;-39
2023/08/29 03:00:47;;;;;;;12.90;9.00;;;13.00;99.90;;;;;;5049971;28;20064;-38
2023/08/29 03:03:16;;;;;;;17.92;9.07;;;13.10;99.90;;;;;;5047918;28;20132;-38
2023/08/29 03:05:56;;;;;;;11.43;8.93;;;13.00;99.90;;;;;;5050117;28;20040;-40
2023/08/29 03:08:24;;;;;;;10.90;9.00;;;13.00;99.90;;;;;;5046755;28;20049;-38
2023/08/29 03:10:53;;;;;;;10.32;8.75;;;13.00;99.90;;;;;;5050933;28;20545;-41
2023/08/29 03:13:21;;;;;;;13.98;8.98;;;13.00;99.90;;;;;;5048395;28;20049;-39
2023/08/29 03:15:49;;;;;;;12.27;9.43;;;12.90;99.90;;;;;;5065935;28;20045;-38
2023/08/29 03:18:17;;;;;;;11.50;8.38;;;13.00;99.90;;;;;;5028168;28;20049;-39
2023/08/29 03:20:45;;;;;;;9.73;8.60;;;13.00;99.90;;;;;;5049407;28;20041;-38
2023/08/29 03:23:12;;;;;;;11.23;8.45;;;13.00;99.90;;;;;;5045772;28;20121;-39
2023/08/29 03:25:39;;;;;;;10.60;9.43;;;13.00;99.90;;;;;;5045705;28;20120;-36
2023/08/29 03:28:08;;;;;;;12.45;8.32;;;13.00;99.90;;;;;;5045842;28;20045;-40
2023/08/29 03:30:36;;;;;;;10.98;8.82;;;12.90;99.90;;;;;;5047843;28;20040;-37
2023/08/29 03:33:03;;;;;;;11.63;9.10;;;12.90;99.90;;;;;;5047768;28;20051;-38
2023/08/29 03:35:31;;;;;;;8.88;7.97;;;13.00;99.90;;;;;;5051301;28;20048;-39
2023/08/29 03:37:59;;;;;;;11.52;9.43;;;13.00;99.90;;;;;;5046995;28;20621;-37
2023/08/29 03:40:26;;;;;;;13.55;9.40;;;13.00;99.90;;;;;;5052695;28;20140;-41
2023/08/29 03:42:54;;;;;;;11.73;9.27;;;12.90;99.90;;;;;;5046839;28;20079;-37
2023/08/29 03:45:21;;;;;;;12.85;9.32;;;12.90;99.90;;;;;;5048470;28;20049;-40
2023/08/29 03:47:49;;;;;;;9.90;8.68;;;12.90;99.90;;;;;;5050002;28;20041;-40
2023/08/29 03:50:16;;;;;;;12.63;9.25;;;12.90;99.90;;;;;;5048559;28;20069;-41
2023/08/29 03:52:48;;;;;;;12.18;8.73;;;12.90;99.90;;;;;;5047957;28;20132;-39
2023/08/29 03:55:15;;;;;;;11.43;9.02;;;13.00;99.90;;;;;;5047952;28;20823;-37
2023/08/29 03:57:43;;;;;;;11.80;9.05;;;13.00;99.90;;;;;;5048957;28;20505;-38
2023/08/29 04:00:11;;;;;;;13.65;9.85;;;13.00;99.90;;;;;;5049883;28;20053;-37
2023/08/29 04:02:42;;;;;;;12.80;8.95;;;13.00;99.90;;;;;;5045604;28;20044;-39
2023/08/29 04:05:17;;;;;;;10.50;9.07;;;13.00;99.90;;;;;;5050430;28;20109;-40
2023/08/29 04:07:47;;;;;;;11.05;8.63;;;13.00;99.90;;;;;;5043645;28;20037;-38
2023/08/29 04:10:14;;;;;;;12.45;9.60;;;13.10;99.90;;;;;;5047815;28;21135;-38
2023/08/29 04:12:42;;;;;;;11.77;9.82;;;13.10;99.90;;;;;;5047483;28;20102;-38
2023/08/29 04:15:11;;;;;;;11.77;9.73;;;13.00;99.90;;;;;;5044551;28;20046;-37
2023/08/29 04:17:39;;;;;;;11.38;9.50;;;13.00;99.90;;;;;;5047610;28;20124;-38
2023/08/29 04:20:12;;;;;;;10.85;9.43;;;13.00;99.90;;;;;;5047376;28;20182;-39
2023/08/29 04:22:39;;;;;;;11.02;9.10;;;13.10;99.90;;;;;;5050841;28;20073;-39
2023/08/29 04:25:08;;;;;;;11.10;9.00;;;13.10;99.90;;;;;;5049318;28;20041;-39
2023/08/29 04:27:37;;;;;;;13.05;9.98;;;13.10;99.90;;;;;;5047860;28;20049;-39
2023/08/29 04:30:05;;;;;;;12.05;9.82;;;13.10;99.90;;;;;;5050876;28;20123;-41
2023/08/29 04:32:36;;;;;;;12.93;9.70;;;13.00;99.90;;;;;;5048299;28;20049;-43
2023/08/29 04:35:11;;;;;;;11.63;9.48;;;13.00;99.90;;;;;;5047945;28;20061;-40
2023/08/29 04:37:38;;;;;;;12.43;9.93;;;13.10;99.90;;;;;;5047424;28;20083;-41
2023/08/29 04:40:06;;;;;;;13.85;9.85;;;13.10;99.90;;;;;;5047056;28;20048;-39
2023/08/29 04:42:34;;;;;;;13.13;11.25;;;13.00;99.90;;;;;;5048506;28;20037;-40
2023/08/29 04:45:04;;;;;;;15.90;10.30;;;13.10;99.90;;;;;;5042612;28;20443;-39
2023/08/29 04:47:32;;;;;;;12.27;10.57;;;13.10;99.90;;;;;;5047500;28;20076;-39
2023/08/29 04:50:00;;;;;;;15.50;11.57;;;13.10;99.90;;;;;;5051530;28;20075;-41
2023/08/29 04:52:27;;;;;;;13.52;10.50;;;13.10;99.90;;;;;;5050855;28;20140;-38
2023/08/29 04:54:55;;;;;;;12.63;10.77;;;13.20;99.90;;;;;;5046634;28;20043;-40
2023/08/29 04:57:23;;;;;;;13.48;11.02;;;13.20;99.90;;;;;;5050315;28;20450;-40
2023/08/29 04:59:50;;;;;;;13.65;11.15;;;13.20;99.90;;;;;;5051133;28;20057;-38
2023/08/29 05:02:18;;;;;;;13.32;11.02;;;13.30;99.90;;;;;;5048160;28;20434;-39
2023/08/29 05:04:47;;;;;;;15.25;11.65;;;13.30;99.90;;;;;;5050859;28;20173;-39
2023/08/29 05:07:14;;;;;;;17.05;11.65;;;13.30;99.90;;;;;;5051565;28;20621;-39
2023/08/29 05:09:42;;;;;;;14.38;10.60;;;13.30;99.90;;;;;;5046855;28;20131;-38
2023/08/29 05:12:10;;;;;;;13.55;12.10;;;13.30;99.90;;;;;;5047234;28;20602;-38
2023/08/29 05:14:38;;;;;;;13.93;11.63;;;13.20;99.90;;;;;;5049829;28;20505;-40
2023/08/29 05:17:08;;;;;;;13.63;11.35;;;13.30;99.90;;;;;;5051087;28;20515;-40
2023/08/29 05:19:36;;;;;;;12.25;10.77;;;13.30;99.90;;;;;;5045373;28;20478;-39
2023/08/29 05:22:04;;;;;;;14.75;10.43;;;13.30;99.90;;;;;;5047241;28;20136;-39
2023/08/29 05:24:32;;;;;;;16.27;10.43;;;13.30;99.90;;;;;;5057004;28;20117;-39
2023/08/29 05:26:59;;;;;;;12.38;9.75;;;13.40;99.90;;;;;;5048378;28;20128;-38
2023/08/29 05:29:27;;;;;;;12.55;9.93;;;13.40;99.90;;;;;;5044616;28;20049;-42
2023/08/29 05:31:54;;;;;;;11.23;9.80;;;13.40;99.90;;;;;;5048659;28;20452;-41
2023/08/29 05:34:21;;;;;;;12.57;9.57;;;13.40;99.90;;;;;;5052574;28;20421;-37
2023/08/29 05:36:50;;;;;;;12.00;9.82;;;13.40;99.90;;;;;;5051368;28;20429;-37
2023/08/29 05:39:18;;;;;;;13.68;9.80;;;13.40;99.90;;;;;;5050194;28;20053;-38
2023/08/29 05:41:46;;;;;;;13.32;9.77;;;13.40;99.90;;;;;;5052311;28;20151;-39
2023/08/29 05:44:14;;;;;;;15.18;10.45;;;13.40;99.90;;;;;;5049902;28;20045;-38
2023/08/29 05:46:41;;;;;;;12.25;9.60;;;13.40;99.90;;;;;;5052767;28;20510;-39
2023/08/29 05:49:08;;;;;;;14.00;11.23;;;13.40;99.90;;;;;;5052557;28;20065;-39
2023/08/29 05:51:36;;;;;;;11.98;10.30;;;13.40;99.90;;;;;;5051852;28;20076;-38
2023/08/29 05:54:04;;;;;;;12.93;10.07;;;13.40;99.90;;;;;;5050928;28;20111;-39
2023/08/29 05:56:32;;;;;;;12.73;9.88;;;13.30;99.90;;;;;;5051697;28;20041;-39
2023/08/29 05:58:59;;;;;;;12.57;10.48;;;13.30;99.90;;;;;;5050576;28;20052;-40
2023/08/29 06:01:26;;;;;;;12.32;10.82;;;13.40;99.90;;;;;;5051156;28;20049;-35
2023/08/29 06:03:54;;;;;;;13.63;10.23;;;13.40;99.90;;;;;;5047461;28;20469;-38
2023/08/29 06:06:21;;;;;;;14.07;9.95;;;13.50;99.90;;;;;;5046583;28;20049;-40
2023/08/29 06:08:48;;;;;;;13.05;10.13;;;13.50;99.90;;;;;;5046616;28;20116;-37
2023/08/29 06:11:16;;;;;;;13.55;10.32;;;13.50;99.90;;;;;;5039633;28;20823;-39
2023/08/29 06:13:43;;;;;;;12.32;9.98;;;13.50;99.90;;;;;;5033951;28;20159;-40
2023/08/29 06:16:11;;;;;;;12.15;10.00;;;13.50;99.90;;;;;;5036495;28;20704;-41
2023/08/29 06:18:38;;;;;;;12.35;9.73;;;13.50;99.90;;;;;;5035343;28;20140;-37
2023/08/29 06:21:05;;;;;;;11.88;9.80;;;13.60;99.90;;;;;;5040479;28;20088;-38
2023/08/29 06:23:32;;;;;;;10.27;8.93;;;13.50;99.90;;;;;;5034896;28;20073;-39
2023/08/29 06:26:00;;;;;;;11.50;9.23;;;13.60;99.90;;;;;;5038492;28;20053;-40
2023/08/29 06:28:27;;;;;;;11.93;10.00;;;13.60;99.90;;;;;;5037643;28;20111;-38
2023/08/29 06:30:54;;;;;;;13.40;10.55;;;13.60;99.90;;;;;;5041786;28;20442;-38
2023/08/29 06:33:22;;;;;;;11.10;9.68;;;13.70;99.90;;;;;;5046830;28;20591;-39
2023/08/29 06:35:49;;;;;;;11.88;10.35;;;13.70;99.90;;;;;;5043413;28;20090;-41
2023/08/29 06:38:17;;;;;;;11.30;9.40;;;13.80;99.90;;;;;;5043515;28;20587;-40
2023/08/29 06:40:44;;;;;;;12.70;10.38;;;13.80;99.90;;;;;;5042278;28;20529;-40
2023/08/29 06:43:11;;;;;;;12.73;9.95;;;13.80;99.90;;;;;;5046466;28;20059;-40
2023/08/29 06:45:39;;;;;;;13.68;9.85;;;13.80;99.90;;;;;;5044087;28;20052;-39
2023/08/29 06:48:06;;;;;;;13.30;10.68;;;13.80;99.90;;;;;;5042680;28;20120;-38
2023/08/29 06:50:34;;;;;;;14.18;10.77;;;13.80;99.90;;;;;;5044464;28;20041;-39
2023/08/29 06:53:02;;;;;;;14.70;11.40;;;13.80;99.90;;;;;;5043137;28;20084;-41
2023/08/29 06:55:32;;;;;;;10.95;9.82;;;13.80;99.90;;;;;;5041962;28;20123;-44
2023/08/29 06:58:00;;;;;;;12.65;9.65;;;14.00;99.90;;;;;;5041477;28;20049;-45
2023/08/29 07:00:28;;;;;;;11.93;9.57;;;14.10;99.90;;;;;;5033751;28;20092;-41
2023/08/29 07:02:55;;;;;;;10.48;9.07;;;14.20;99.90;;;;;;5043496;28;20102;-43
2023/08/29 07:05:22;;;;;;;10.88;8.77;;;14.30;99.90;;;;;;5041242;28;20040;-42
2023/08/29 07:07:51;;;;;;;11.48;8.48;;;14.40;99.90;;;;;;5040664;28;20049;-46
2023/08/29 07:10:19;;;;;;;10.88;8.73;;;14.60;99.90;;;;;;5044276;28;20041;-43
2023/08/29 07:12:48;;;;;;;9.82;8.20;;;14.60;99.90;;;;;;5045252;28;20055;-47
2023/08/29 07:15:16;;;;;;;10.57;8.60;;;14.60;99.90;;;;;;5044688;28;20140;-43
2023/08/29 07:17:43;;;;;;;10.85;8.48;;;14.60;99.90;;;;;;5047640;28;20161;-47
2023/08/29 07:20:11;;;;;;;10.38;7.97;;;14.60;99.90;;;;;;5047423;28;20064;-42
2023/08/29 07:22:43;;;;;;;11.70;8.85;;;14.70;99.90;;;;;;5040568;28;20049;-45
2023/08/29 07:25:11;;;;;;;9.45;7.47;;;14.70;99.90;;;;;;5038385;28;20764;-42
2023/08/29 07:27:38;;;;;;;9.25;7.97;;;14.70;99.90;;;;;;5044003;28;20075;-46
2023/08/29 07:30:07;;;;;;;9.52;8.00;;;14.70;99.90;;;;;;5040754;28;20060;-44
2023/08/29 07:32:34;;;;;;;11.20;8.15;;;14.70;99.90;;;;;;5042931;28;20606;-49
2023/08/29 07:35:02;;;;;;;8.45;6.82;;;14.70;99.90;;;;;;5043885;28;20489;-43
2023/08/29 07:37:30;;;;;;;8.07;6.80;;;14.80;99.90;;;;;;5041578;28;20045;-47
2023/08/29 07:39:57;;;;;;;9.55;7.50;;;14.80;99.90;;;;;;5045792;28;20052;-44
2023/08/29 07:42:24;;;;;;;8.93;7.00;;;14.60;99.90;;;;;;5044392;28;20540;-46
2023/08/29 07:44:52;;;;;;;8.90;7.68;;;14.50;99.90;;;;;;5043386;28;20202;-44
2023/08/29 07:47:19;;;;;;;11.13;7.97;;;14.70;99.90;;;;;;5041286;28;20060;-45
2023/08/29 07:49:46;;;;;;;9.15;7.95;;;14.60;99.90;;;;;;5041830;28;20076;-47
2023/08/29 07:52:13;;;;;;;11.82;8.05;;;14.50;99.90;;;;;;5045214;28;20103;-43
2023/08/29 07:54:42;;;;;;;10.02;8.63;;;14.50;99.90;;;;;;5037102;28;20045;-45
2023/08/29 07:57:09;;;;;;;10.27;7.95;;;14.50;99.90;;;;;;5040974;28;20080;-51
2023/08/29 07:59:37;;;;;;;10.63;8.18;;;14.60;99.90;;;;;;5035884;28;20098;-45
2023/08/29 08:02:05;;;;;;;9.43;8.13;;;14.70;99.90;;;;;;5039138;28;20068;-47
2023/08/29 08:04:33;;;;;;;10.15;8.20;;;14.70;99.90;;;;;;5040967;28;20065;-46
2023/08/29 08:07:00;;;;;;;11.23;8.00;;;14.70;99.90;;;;;;5040499;28;20119;-42
2023/08/29 08:09:28;;;;;;;10.50;7.57;;;14.70;99.90;;;;;;5032582;28;20052;-45
2023/08/29 08:11:56;;;;;;;10.43;8.30;;;14.80;99.90;;;;;;5036238;28;20624;-43
2023/08/29 08:14:23;;;;;;;10.30;7.03;;;14.80;99.90;;;;;;5038741;28;20065;-47
2023/08/29 08:16:50;;;;;;;9.02;7.05;;;14.90;99.90;;;;;;5038189;28;20128;-46
2023/08/29 08:19:18;;;;;;;9.07;6.55;;;14.90;99.90;;;;;;5038697;28;20057;-50
2023/08/29 08:21:45;;;;;;;8.27;6.38;;;15.00;99.90;;;;;;5034491;28;20032;-49
2023/08/29 08:24:16;;;;;;;7.32;5.88;;;15.10;99.90;;;;;;5039950;28;20559;-45
2023/08/29 08:26:43;;;;;;;7.72;6.78;;;15.20;99.90;;;;;;5045734;28;20052;-51
2023/08/29 08:29:11;;;;;;;9.40;6.78;;;15.20;99.90;;;;;;5043618;28;20075;-46
2023/08/29 08:31:38;;;;;;;9.40;7.72;;;15.20;99.90;;;;;;5050365;28;20144;-47
2023/08/29 08:34:05;;;;;;;9.48;7.68;;;15.30;99.90;;;;;;5045838;28;20280;-43
2023/08/29 08:36:33;;;;;;;9.10;7.32;;;15.20;99.90;;;;;;5049808;28;20410;-42
2023/08/29 08:39:00;;;;;;;8.98;7.43;;;15.20;99.90;;;;;;5040195;28;20128;-46
2023/08/29 08:41:28;;;;;;;10.73;8.55;;;15.20;99.90;;;;;;5039973;28;20060;-41
2023/08/29 08:43:56;;;;;;;9.77;7.85;;;15.20;99.90;;;;;;5045389;28;20041;-37
2023/08/29 08:46:25;;;;;;;11.77;7.80;;;15.20;99.90;;;;;;5042663;28;20403;-39
2023/08/29 08:48:53;;;;;;;9.45;7.25;;;15.30;99.90;;;;;;5045085;28;20496;-40
2023/08/29 08:51:22;;;;;;;9.43;6.85;;;15.30;99.90;;;;;;5038456;28;20042;-39
2023/08/29 08:53:52;;;;;;;9.43;7.05;;;15.40;99.90;;;;;;5041775;28;20049;-43
2023/08/29 08:56:20;;;;;;;7.97;6.90;;;15.20;99.90;;;;;;5037313;28;20150;-39
2023/08/29 08:58:47;;;;;;;8.68;7.22;;;15.10;99.90;;;;;;5038066;28;20056;-39
2023/08/29 09:01:15;;;;;;;9.23;7.25;;;15.00;99.90;;;;;;5038367;28;20178;-42
2023/08/29 09:03:43;;;;;;;7.50;6.50;;;15.00;99.90;;;;;;5045210;28;20069;-40
2023/08/29 09:06:14;;;;;;;8.82;6.97;;;14.90;99.90;;;;;;5046397;28;20211;-40
2023/08/29 09:08:41;;;;;;;7.90;6.78;;;14.90;99.90;;;;;;5041001;28;20109;-41
2023/08/29 09:11:09;;;;;;;7.53;6.10;;;14.80;99.90;;;;;;5038488;28;20095;-41
2023/08/29 09:13:49;;;;;;;7.63;4.85;;;14.80;99.90;;;;;;5038599;28;20060;-38
2023/08/29 09:16:19;;;;;;;6.68;4.60;;;14.60;99.90;;;;;;5038824;28;20068;-39
2023/08/29 09:18:49;;;;;;;5.82;4.07;;;14.60;99.90;;;;;;5036227;28;20071;-41
2023/08/29 09:21:18;;;;;;;5.47;3.88;;;14.60;99.90;;;;;;5043698;28;20095;-39
2023/08/29 09:23:45;;;;;;;5.65;3.72;;;14.60;99.90;;;;;;5042195;28;20054;-42
2023/08/29 09:26:13;;;;;;;5.93;3.22;;;14.70;99.90;;;;;;5044100;28;20479;-41
2023/08/29 09:28:40;;;;;;;5.43;2.85;;;14.80;99.90;;;;;;5051145;28;20123;-39
2023/08/29 09:31:10;;;;;;;3.95;2.85;;;14.90;99.90;;;;;;5050782;28;20053;-38
2023/08/29 09:33:39;;;;;;;6.10;3.70;;;15.00;99.90;;;;;;5051567;28;20057;-42
2023/08/29 09:36:07;;;;;;;5.25;3.15;;;15.20;99.90;;;;;;5046289;28;20068;-42
2023/08/29 09:38:35;;;;;;;7.70;3.47;;;15.30;99.90;;;;;;5047599;28;20056;-42
2023/08/29 09:41:03;;;;;;;4.50;3.08;;;15.40;99.90;;;;;;5051621;28;20144;-38
2023/08/29 09:43:31;;;;;;;4.53;2.92;;;15.40;99.90;;;;;;5047336;28;20555;-38
2023/08/29 09:45:59;;;;;;;5.18;3.05;;;15.50;99.90;;;;;;5046984;28;20045;-38
2023/08/29 09:48:27;;;;;;;4.28;2.72;;;15.40;99.90;;;;;;5047628;28;20044;-38
2023/08/29 09:50:58;;;;;;;4.70;3.25;;;15.50;99.90;;;;;;5039021;28;20049;-40
2023/08/29 09:53:28;;;;;;;5.43;3.10;;;15.50;99.90;;;;;;5044176;28;20061;-38
2023/08/29 09:56:07;;;;;;;5.50;3.00;;;15.50;99.90;;;;;;5043425;28;20053;-38
2023/08/29 09:58:38;;;;;;;3.60;2.58;;;15.40;99.90;;;;;;5042735;28;20057;-39
2023/08/29 10:01:08;;;;;;;3.95;2.63;;;15.40;99.90;;;;;;5039471;28;20095;-40
2023/08/29 10:03:35;;;;;;;3.80;2.72;;;15.50;99.90;;;;;;5039933;28;20628;-38
2023/08/29 10:06:06;;;;;;;4.32;3.10;;;15.60;99.90;;;;;;5040054;28;20167;-39
2023/08/29 10:08:43;;;;;;;3.95;2.88;;;15.60;99.90;;;;;;5044948;28;20490;-38
2023/08/29 10:11:10;;;;;;;6.22;3.20;;;15.50;99.90;;;;;;5035623;28;20049;-40
2023/08/29 10:13:40;;;;;;;4.28;2.85;;;15.60;99.90;;;;;;5032266;28;20049;-41
2023/08/29 10:16:08;;;;;;;4.35;2.95;;;15.40;99.90;;;;;;5035385;28;20515;-43
2023/08/29 10:18:36;;;;;;;5.68;2.83;;;15.50;99.90;;;;;;5036696;28;20053;-41
2023/08/29 10:21:04;;;;;;;5.18;2.90;;;15.60;99.90;;;;;;5041044;28;20589;-39
2023/08/29 10:23:32;;;;;;;6.50;2.63;;;15.60;99.90;;;;;;5042760;28;20080;-42
2023/08/29 10:26:01;;;;;;;4.30;2.95;;;15.50;99.90;;;;;;5037565;28;20112;-39
2023/08/29 10:28:30;;;;;;;6.90;2.92;;;15.70;99.90;;;;;;5045751;28;20041;-42
2023/08/29 10:31:02;;;;;;;3.58;2.50;;;15.90;99.90;;;;;;5045891;28;20110;-43
2023/08/29 10:33:30;;;;;;;6.15;2.83;;;16.10;99.90;;;;;;5044027;28;20513;-42
2023/08/29 10:35:57;;;;;;;4.05;2.67;;;16.30;99.90;;;;;;5039663;28;20316;-38
2023/08/29 10:38:26;;;;;;;6.60;3.08;;;16.40;99.90;;;;;;5045262;28;20487;-37
2023/08/29 10:41:06;;;;;;;4.10;3.30;;;16.50;99.90;;;;;;5044353;28;20536;-44
2023/08/29 10:43:35;;;;;;;6.18;4.10;;;16.60;99.90;;;;;;5045538;28;20055;-38
2023/08/29 10:46:11;;;;;;;5.78;3.60;;;16.70;99.90;;;;;;5044064;28;20041;-40
2023/08/29 10:48:39;;;;;;;4.70;2.90;;;16.80;99.90;;;;;;5030217;28;20052;-39
2023/08/29 10:51:14;;;;;;;4.00;2.92;;;16.60;99.90;;;;;;5042290;28;20057;-41
2023/08/29 10:54:06;;;;;;;3.72;2.50;;;16.50;99.90;;;;;;5037200;28;20041;-43
2023/08/29 10:56:42;;;;;;;6.03;2.63;;;16.10;99.90;;;;;;5037470;28;20076;-38
2023/08/29 10:59:29;;;;;;;3.42;2.25;;;16.00;99.90;;;;;;5039697;28;20075;-42
2023/08/29 11:02:21;;;;;;;3.13;2.10;;;15.90;99.90;;;;;;5033205;28;20485;-38
2023/08/29 11:05:05;;;;;;;4.07;2.55;;;15.70;99.90;;;;;;5039167;28;20549;-39
2023/08/29 11:07:34;;;;;;;3.50;2.22;;;15.50;99.90;;;;;;5042494;28;20221;-38
2023/08/29 11:10:20;;;;;;;2.55;1.90;;;15.40;99.90;;;;;;5037857;28;20041;-37
2023/08/29 11:13:11;;;;;;;3.53;2.17;;;15.30;99.90;;;;;;5041385;28;20044;-40
2023/08/29 11:15:47;;;;;;;3.60;2.10;;;15.20;99.90;;;;;;5035813;28;20044;-40
2023/08/29 11:18:35;;;;;;;4.30;2.13;;;15.20;99.90;;;;;;5040148;28;20372;-39
2023/08/29 11:21:09;;;;;;;2.97;1.90;;;15.40;99.90;;;;;;5045462;28;20049;-41
2023/08/29 11:23:39;;;;;;;3.58;2.35;;;15.60;99.90;;;;;;5034160;28;20055;-39
2023/08/29 11:26:08;;;;;;;4.30;2.10;;;16.10;99.90;;;;;;5039943;28;20111;-41
2023/08/29 11:28:41;;;;;;;3.42;1.80;;;16.40;99.90;;;;;;5045090;28;20551;-39
2023/08/29 11:31:09;;;;;;;3.33;1.95;;;16.70;99.90;;;;;;5044453;28;20060;-41
2023/08/29 11:33:37;;;;;;;3.22;1.77;;;17.10;99.90;;;;;;5039244;28;20057;-37
2023/08/29 11:36:06;;;;;;;2.40;1.50;;;17.50;99.90;;;;;;5044370;28;20048;-39
2023/08/29 11:38:34;;;;;;;2.42;1.63;;;17.50;99.90;;;;;;5042915;28;20110;-39
2023/08/29 11:41:05;;;;;;;2.58;1.63;;;17.80;99.90;;;;;;5045861;28;20056;-41
2023/08/29 11:43:56;;;;;;;3.50;1.67;;;17.60;99.90;;;;;;5040423;28;20411;-38
2023/08/29 11:46:43;;;;;;;3.10;1.77;;;17.90;99.90;;;;;;5040894;28;20368;-39
2023/08/29 11:49:13;;;;;;;3.22;2.20;;;17.90;99.90;;;;;;5034814;28;20437;-39
2023/08/29 11:51:41;;;;;;;2.42;1.67;;;18.00;99.90;;;;;;5039400;28;20130;-41
2023/08/29 11:54:37;;;;;;;3.22;1.88;;;18.00;99.90;;;;;;5030956;28;20076;-39
2023/08/29 11:57:12;;;;;;;3.53;1.80;;;18.10;99.90;;;;;;5035570;28;20133;-41
2023/08/29 11:59:42;;;;;;;3.67;1.90;;;18.20;99.90;;;;;;5036915;28;20490;-42
2023/08/29 12:02:16;;;;;;;4.03;1.90;;;18.00;99.90;;;;;;5036251;28;20057;-39
2023/08/29 12:04:48;;;;;;;2.95;1.88;;;18.00;99.90;;;;;;5033625;28;20048;-41
2023/08/29 12:07:17;;;;;;;3.85;1.90;;;17.90;99.90;;;;;;5036238;28;20049;-40
2023/08/29 12:09:46;;;;;;;3.03;1.92;;;17.90;99.90;;;;;;5040321;28;20051;-41
2023/08/29 12:12:36;;;;;;;2.83;1.98;;;17.70;99.90;;;;;;5036987;28;20139;-39
2023/08/29 12:15:05;;;;;;;4.20;2.05;;;17.60;99.90;;;;;;5040052;28;20067;-42
2023/08/29 12:17:38;;;;;;;4.53;2.15;;;17.30;99.90;;;;;;5037981;28;20091;-38
2023/08/29 12:20:12;;;;;;;5.68;2.35;;;17.10;99.90;;;;;;5040103;28;20056;-41
2023/08/29 12:22:42;;;;;;;5.65;2.20;;;17.00;99.90;;;;;;5037965;28;20041;-41
2023/08/29 12:25:09;;;;;;;6.03;2.03;;;17.00;99.90;;;;;;5041754;28;20072;-45
2023/08/29 12:27:37;;;;;;;3.95;2.13;;;17.20;99.90;;;;;;5040860;28;20072;-41
2023/08/29 12:30:06;;;;;;;3.70;2.10;;;17.20;99.90;;;;;;5038864;28;20052;-41
2023/08/29 12:32:34;;;;;;;4.55;1.90;;;17.20;99.90;;;;;;5046034;28;20603;-40
2023/08/29 12:35:01;;;;;;;4.65;2.10;;;17.30;99.90;;;;;;5045006;28;20049;-39
2023/08/29 12:37:29;;;;;;;6.47;2.67;;;17.30;99.90;;;;;;5046247;28;20647;-40
2023/08/29 12:39:56;;;;;;;4.72;2.30;;;17.30;99.90;;;;;;5046049;28;20044;-41
2023/08/29 12:42:23;;;;;;;6.30;2.45;;;17.40;99.90;;;;;;5046178;28;20060;-44
2023/08/29 12:44:52;;;;;;;5.70;2.75;;;17.20;99.90;;;;;;5044310;28;20148;-38
2023/08/29 12:47:19;;;;;;;7.43;2.30;;;17.20;99.90;;;;;;5044147;28;20128;-40
2023/08/29 12:49:47;;;;;;;5.63;2.60;;;17.30;99.90;;;;;;5044081;28;20527;-41
2023/08/29 12:52:14;;;;;;;8.55;2.88;;;17.40;99.90;;;;;;5043502;28;20443;-41